Time;durP1;ratioP1;P1;durP2;ratioP2;P2;SDS_P1;SDS_P2;PMS_P1;PMS_P2;Temp;Humidity;BMP_temperature;BMP_pressure;BME280_temperature;BME280_humidity;BME280_pressure;Samples;Min_cycle;Max_cycle;Signal;HPM_P1;HPM_P2
2023/09/07 00:01:53;;;;;;;;;;;;;;;21.70;51.94;100881.13;4972346;28;6810;-73
2023/09/07 00:04:19;;;;;;;;;;;;;;;21.59;52.19;100872.31;4965937;28;7123;-74
2023/09/07 00:06:45;;;;;;;;;;;;;;;21.46;52.37;100869.56;4970507;28;7044;-73
2023/09/07 00:09:15;;;;;;;;;;;;;;;21.35;52.51;100876.41;4983004;28;6784;-74
2023/09/07 00:11:41;;;;;;;;;;;;;;;21.23;52.99;100864.97;4972420;28;7210;-73
2023/09/07 00:14:07;;;;;;;;;;;;;;;21.14;53.21;100861.41;4982827;28;6780;-73
2023/09/07 00:16:38;;;;;;;;;;;;;;;21.07;53.26;100868.28;4982580;28;7156;-73
2023/09/07 00:19:04;;;;;;;;;;;;;;;20.97;53.41;100854.25;4982377;28;6991;-73
2023/09/07 00:21:30;;;;;;;;;;;;;;;20.94;54.23;100857.69;4966652;28;6982;-73
2023/09/07 00:23:55;;;;;;;;;;;;;;;20.90;54.11;100848.09;4967773;28;6859;-74
2023/09/07 00:26:21;;;;;;;;;;;;;;;20.90;54.59;100852.41;4982363;28;6953;-73
2023/09/07 00:28:47;;;;;;;;;;;;;;;20.90;54.12;100853.31;4982530;28;6878;-73
2023/09/07 00:31:12;;;;;;;;;;;;;;;20.91;54.20;100844.63;4981382;28;6959;-73
2023/09/07 00:33:38;;;;;;;;;;;;;;;20.93;54.86;100855.06;4982823;28;7050;-73
2023/09/07 00:36:04;;;;;;;;;;;;;;;20.94;54.47;100856.81;4967273;28;6792;-73
2023/09/07 00:38:30;;;;;;;;;;;;;;;20.95;54.72;100853.34;4982269;28;7370;-73
2023/09/07 00:40:55;;;;;;;;;;;;;;;20.99;54.96;100849.91;4981796;28;6976;-73
2023/09/07 00:43:21;;;;;;;;;;;;;;;21.04;54.43;100852.59;4981937;28;6965;-73
2023/09/07 00:45:46;;;;;;;;;;;;;;;21.07;54.73;100848.28;4982491;28;6973;-74
2023/09/07 00:48:13;;;;;;;;;;;;;;;21.10;54.65;100850.06;4968588;28;6796;-73
2023/09/07 00:50:39;;;;;;;;;;;;;;;21.12;54.56;100845.72;4983255;28;6872;-74
2023/09/07 00:53:06;;;;;;;;;;;;;;;21.13;54.45;100847.47;4982492;28;7235;-74
2023/09/07 00:55:34;;;;;;;;;;;;;;;21.14;54.71;100848.38;4982266;28;6956;-73
2023/09/07 00:58:03;;;;;;;;;;;;;;;21.14;54.18;100858.78;4998130;28;6987;-73
2023/09/07 01:00:29;;;;;;;;;;;;;;;21.13;54.39;100846.63;4966314;28;7070;-73
2023/09/07 01:02:55;;;;;;;;;;;;;;;21.09;54.28;100843.97;4997951;28;6938;-74
2023/09/07 01:05:38;;;;;;;;;;;;;;;21.06;54.47;100841.31;4981798;28;7056;-73
2023/09/07 01:08:12;;;;;;;;;;;;;;;21.03;54.35;100841.31;4960169;28;7121;-73
2023/09/07 01:10:38;;;;;;;;;;;;;;;21.01;54.38;100837.81;4982819;28;7286;-73
2023/09/07 01:13:03;;;;;;;;;;;;;;;20.98;54.12;100835.16;4981481;28;7042;-74
2023/09/07 01:15:29;;;;;;;;;;;;;;;20.94;54.62;100834.22;4982027;28;6784;-73
2023/09/07 01:17:55;;;;;;;;;;;;;;;20.91;54.56;100833.34;4967006;28;6783;-74
2023/09/07 01:20:23;;;;;;;;;;;;;;;20.88;55.00;100831.56;4982598;28;6788;-74
2023/09/07 01:22:49;;;;;;;;;;;;;;;20.84;54.95;100826.31;4971050;28;7055;-74
2023/09/07 01:25:15;;;;;;;;;;;;;;;20.81;54.61;100824.50;4982171;28;6784;-75
2023/09/07 01:27:41;;;;;;;;;;;;;;;20.80;54.74;100827.97;4965336;28;6993;-73
2023/09/07 01:30:08;;;;;;;;;;;;;;;20.78;55.11;100829.69;4966513;28;7069;-74
2023/09/07 01:32:33;;;;;;;;;;;;;;;20.76;55.22;100827.03;4980832;28;7102;-75
2023/09/07 01:34:59;;;;;;;;;;;;;;;20.78;55.34;100825.31;4966401;28;6791;-73
2023/09/07 01:37:24;;;;;;;;;;;;;;;20.78;55.45;100825.31;4965643;28;7330;-76
2023/09/07 01:39:50;;;;;;;;;;;;;;;20.79;55.36;100823.59;4969673;28;6783;-76
2023/09/07 01:42:15;;;;;;;;;;;;;;;20.79;55.63;100824.47;4965803;28;7338;-76
2023/09/07 01:44:43;;;;;;;;;;;;;;;20.80;55.26;100825.34;4982388;28;6776;-76
2023/09/07 01:47:08;;;;;;;;;;;;;;;20.79;55.38;100821.00;4965064;28;7251;-76
2023/09/07 01:49:34;;;;;;;;;;;;;;;20.78;55.61;100825.31;4966811;28;7133;-76
2023/09/07 01:51:59;;;;;;;;;;;;;;;20.75;55.14;100824.41;4981431;28;6978;-75
2023/09/07 01:54:25;;;;;;;;;;;;;;;20.72;55.47;100812.25;4965433;28;7308;-75
2023/09/07 01:56:50;;;;;;;;;;;;;;;20.69;55.63;100812.19;4981816;28;7224;-75
2023/09/07 01:59:16;;;;;;;;;;;;;;;20.67;55.53;100821.72;4997540;28;6867;-76
2023/09/07 02:01:41;;;;;;;;;;;;;;;20.64;55.61;100822.53;4981110;28;7043;-76
2023/09/07 02:04:07;;;;;;;;;;;;;;;20.62;55.21;100819.06;4982741;28;6977;-76
2023/09/07 02:06:32;;;;;;;;;;;;;;;20.58;55.61;100817.28;4976916;28;6840;-76
2023/09/07 02:08:58;;;;;;;;;;;;;;;20.56;55.37;100812.91;4969630;28;7150;-75
2023/09/07 02:11:23;;;;;;;;;;;;;;;20.52;55.32;100817.19;4985054;28;6775;-76
2023/09/07 02:13:49;;;;;;;;;;;;;;;20.49;55.15;100815.41;4985043;28;6856;-75
2023/09/07 02:16:14;;;;;;;;;;;;;;;20.45;55.71;100812.75;4975078;28;6776;-76
2023/09/07 02:18:43;;;;;;;;;;;;;;;20.42;55.58;100820.50;4968342;28;7214;-76
2023/09/07 02:21:09;;;;;;;;;;;;;;;20.36;55.83;100822.16;4973455;28;6796;-76
2023/09/07 02:23:37;;;;;;;;;;;;;;;20.31;55.74;100820.34;4984385;28;6788;-76
2023/09/07 02:26:02;;;;;;;;;;;;;;;20.27;55.87;100819.44;4983580;28;6965;-75
2023/09/07 02:28:28;;;;;;;;;;;;;;;20.21;56.22;100824.56;4969820;28;7035;-75
2023/09/07 02:30:54;;;;;;;;;;;;;;;20.16;56.00;100818.41;4972435;28;6811;-76
2023/09/07 02:33:19;;;;;;;;;;;;;;;20.11;56.38;100824.41;4968264;28;6995;-75
2023/09/07 02:35:45;;;;;;;;;;;;;;;20.06;56.10;100822.59;4984376;28;7158;-76
2023/09/07 02:38:10;;;;;;;;;;;;;;;20.03;56.60;100832.94;4968809;28;6952;-76
2023/09/07 02:40:43;;;;;;;;;;;;;;;19.98;56.18;100828.56;4969493;28;6796;-76
2023/09/07 02:43:09;;;;;;;;;;;;;;;19.96;56.51;100831.97;4984713;28;6963;-74
2023/09/07 02:45:34;;;;;;;;;;;;;;;19.91;56.58;100833.59;4969221;28;7000;-75
2023/09/07 02:48:00;;;;;;;;;;;;;;;19.87;56.78;100834.38;4985095;28;7011;-75
2023/09/07 02:50:26;;;;;;;;;;;;;;;19.81;56.92;100828.25;4968266;28;6962;-75
2023/09/07 02:52:51;;;;;;;;;;;;;;;19.78;57.01;100829.94;4973576;28;7125;-75
2023/09/07 02:55:16;;;;;;;;;;;;;;;19.75;57.33;100832.44;4967933;28;7271;-75
2023/09/07 02:57:42;;;;;;;;;;;;;;;19.73;57.11;100824.66;4984478;28;6867;-75
2023/09/07 03:00:10;;;;;;;;;;;;;;;19.72;57.39;100822.91;4984936;28;6861;-75
2023/09/07 03:02:36;;;;;;;;;;;;;;;19.71;57.95;100827.22;4969024;28;7216;-75
2023/09/07 03:05:02;;;;;;;;;;;;;;;19.70;57.33;100819.38;4984281;28;6792;-75
2023/09/07 03:07:33;;;;;;;;;;;;;;;19.70;57.18;100822.84;4998704;28;6784;-75
2023/09/07 03:09:58;;;;;;;;;;;;;;;19.69;57.45;100821.09;4968023;28;6917;-75
2023/09/07 03:12:24;;;;;;;;;;;;;;;19.69;57.86;100818.50;4968761;28;6954;-75
2023/09/07 03:14:50;;;;;;;;;;;;;;;19.68;57.48;100821.06;4983449;28;6987;-75
2023/09/07 03:17:16;;;;;;;;;;;;;;;19.68;57.79;100815.88;4982130;28;6837;-75
2023/09/07 03:19:42;;;;;;;;;;;;;;;19.66;57.64;100813.28;4984288;28;7001;-75
2023/09/07 03:22:08;;;;;;;;;;;;;;;19.66;57.79;100815.88;4968234;28;6804;-74
2023/09/07 03:24:34;;;;;;;;;;;;;;;19.67;58.03;100814.13;4968395;28;6985;-75
2023/09/07 03:27:00;;;;;;;;;;;;;;;19.69;58.02;100813.31;4984205;28;6812;-75
2023/09/07 03:29:25;;;;;;;;;;;;;;;19.68;58.13;100808.06;4968441;28;6969;-75
2023/09/07 03:31:51;;;;;;;;;;;;;;;19.67;57.42;100807.22;4968687;28;6776;-75
2023/09/07 03:34:16;;;;;;;;;;;;;;;19.67;58.13;100806.31;4967018;28;7111;-75
2023/09/07 03:36:41;;;;;;;;;;;;;;;19.66;57.67;100807.19;4998876;28;6986;-75
2023/09/07 03:39:07;;;;;;;;;;;;;;;19.64;57.85;100808.88;4999940;28;6867;-73
2023/09/07 03:41:34;;;;;;;;;;;;;;;19.63;58.24;100812.34;4984075;28;6973;-73
2023/09/07 03:43:59;;;;;;;;;;;;;;;19.62;58.00;100813.19;4969271;28;6988;-73
2023/09/07 03:46:26;;;;;;;;;;;;;;;19.57;58.17;100816.56;4983469;28;7034;-73
2023/09/07 03:48:51;;;;;;;;;;;;;;;19.54;57.78;100819.13;4967237;28;7359;-73
2023/09/07 03:51:17;;;;;;;;;;;;;;;19.52;58.43;100818.22;4983364;28;6980;-73
2023/09/07 03:53:43;;;;;;;;;;;;;;;19.50;58.57;100817.28;4973420;28;7174;-73
2023/09/07 03:56:08;;;;;;;;;;;;;;;19.50;58.71;100812.09;4966821;28;6776;-74
2023/09/07 03:58:34;;;;;;;;;;;;;;;19.49;58.57;100823.34;4982798;28;7191;-74
2023/09/07 04:00:59;;;;;;;;;;;;;;;19.48;58.36;100818.16;4966919;28;6973;-73
2023/09/07 04:03:25;;;;;;;;;;;;;;;19.50;58.68;100814.69;4983065;28;7248;-74
2023/09/07 04:05:51;;;;;;;;;;;;;;;19.50;58.67;100825.09;4983110;28;7540;-74
2023/09/07 04:08:16;;;;;;;;;;;;;;;19.53;58.80;100819.09;4972181;28;7246;-74
2023/09/07 04:10:42;;;;;;;;;;;;;;;19.54;58.52;100824.31;4998986;28;7187;-72
2023/09/07 04:13:07;;;;;;;;;;;;;;;19.56;58.68;100819.16;4973030;28;7129;-75
2023/09/07 04:15:43;;;;;;;;;;;;;;;19.59;59.30;100815.72;4983871;28;6784;-74
2023/09/07 04:18:12;;;;;;;;;;;;;;;19.61;58.41;100814.91;4981997;28;6852;-74
2023/09/07 04:20:39;;;;;;;;;;;;;;;19.63;58.99;100815.78;4967532;28;7020;-73
2023/09/07 04:23:04;;;;;;;;;;;;;;;19.66;59.14;100821.06;4983041;28;6883;-73
2023/09/07 04:25:30;;;;;;;;;;;;;;;19.67;58.76;100815.00;4969384;28;6797;-73
2023/09/07 04:27:56;;;;;;;;;;;;;;;19.67;58.40;100807.22;4982393;28;7018;-73
2023/09/07 04:30:22;;;;;;;;;;;;;;;19.67;58.51;100816.72;4982241;28;7269;-75
2023/09/07 04:32:48;;;;;;;;;;;;;;;19.64;58.69;100816.69;4967860;28;6792;-73
2023/09/07 04:35:13;;;;;;;;;;;;;;;19.62;58.33;100816.66;4972892;28;6998;-73
2023/09/07 04:37:43;;;;;;;;;;;;;;;19.59;58.43;100815.72;4981646;28;6829;-72
2023/09/07 04:40:09;;;;;;;;;;;;;;;19.54;58.17;100808.72;4998561;28;6996;-73
2023/09/07 04:42:34;;;;;;;;;;;;;;;19.50;58.47;100816.44;4984018;28;6942;-73
2023/09/07 04:45:00;;;;;;;;;;;;;;;19.44;58.76;100817.22;4972550;28;6864;-73
2023/09/07 04:47:25;;;;;;;;;;;;;;;19.40;58.59;100817.97;4970861;28;6973;-73
2023/09/07 04:49:51;;;;;;;;;;;;;;;19.35;58.56;100817.03;4982334;28;6970;-73
2023/09/07 04:52:16;;;;;;;;;;;;;;;19.29;59.11;100813.47;4965277;28;7115;-74
2023/09/07 04:54:43;;;;;;;;;;;;;;;19.26;58.50;100821.22;4966664;28;7117;-72
2023/09/07 04:57:09;;;;;;;;;;;;;;;19.21;59.14;100814.19;4981481;28;6994;-73
2023/09/07 04:59:34;;;;;;;;;;;;;;;19.18;58.91;100814.13;4965720;28;6992;-75
2023/09/07 05:02:03;;;;;;;;;;;;;;;19.14;58.88;100816.66;4981718;28;7095;-75
2023/09/07 05:04:28;;;;;;;;;;;;;;;19.12;58.90;100815.75;4980986;28;6862;-74
2023/09/07 05:06:55;;;;;;;;;;;;;;;19.11;58.88;100819.19;4967719;28;6788;-73
2023/09/07 05:09:21;;;;;;;;;;;;;;;19.10;59.24;100826.94;4965577;28;7033;-73
2023/09/07 05:11:46;;;;;;;;;;;;;;;19.11;59.38;100828.69;4965657;28;7284;-73
2023/09/07 05:14:12;;;;;;;;;;;;;;;19.11;59.86;100824.41;4982127;28;7071;-74
2023/09/07 05:16:37;;;;;;;;;;;;;;;19.12;60.04;100828.75;4966676;28;7279;-73
2023/09/07 05:19:03;;;;;;;;;;;;;;;19.13;59.30;100833.09;4967266;28;6906;-73
2023/09/07 05:21:28;;;;;;;;;;;;;;;19.14;59.83;100828.78;4965771;28;6969;-73
2023/09/07 05:23:54;;;;;;;;;;;;;;;19.15;59.82;100835.72;4967413;28;6863;-73
2023/09/07 05:26:24;;;;;;;;;;;;;;;19.18;59.57;100837.50;4981545;28;6792;-73
2023/09/07 05:28:50;;;;;;;;;;;;;;;19.16;60.06;100832.28;4981927;28;7117;-72
2023/09/07 05:31:15;;;;;;;;;;;;;;;19.16;60.03;100834.88;4996901;28;6791;-72
2023/09/07 05:33:41;;;;;;;;;;;;;;;19.18;59.56;100829.72;4970601;28;6998;-78
2023/09/07 05:36:06;;;;;;;;;;;;;;;19.19;59.78;100836.66;4996601;28;7071;-75
2023/09/07 05:38:32;;;;;;;;;;;;;;;19.19;59.65;100842.72;4967124;28;6871;-75
2023/09/07 05:40:57;;;;;;;;;;;;;;;19.22;59.76;100842.81;4985788;28;7379;-75
2023/09/07 05:43:23;;;;;;;;;;;;;;;19.23;59.72;100841.06;4986116;28;6935;-75
2023/09/07 05:45:48;;;;;;;;;;;;;;;19.27;59.38;100845.50;4985879;28;6959;-75
2023/09/07 05:48:16;;;;;;;;;;;;;;;19.31;59.92;100849.00;4970815;28;6780;-74
2023/09/07 05:50:42;;;;;;;;;;;;;;;19.36;60.05;100848.28;4973899;28;6982;-75
2023/09/07 05:53:08;;;;;;;;;;;;;;;19.43;59.74;100847.50;4969649;28;7173;-75
2023/09/07 05:55:34;;;;;;;;;;;;;;;19.51;59.88;100846.78;4984512;28;6796;-75
2023/09/07 05:57:59;;;;;;;;;;;;;;;19.60;60.02;100844.34;4964379;28;7086;-75
2023/09/07 06:00:25;;;;;;;;;;;;;;;19.68;60.02;100847.06;4978336;28;6855;-75
2023/09/07 06:02:51;;;;;;;;;;;;;;;19.76;60.06;100853.28;4985337;28;6960;-75
2023/09/07 06:05:17;;;;;;;;;;;;;;;19.85;59.72;100855.19;4968663;28;6983;-76
2023/09/07 06:07:44;;;;;;;;;;;;;;;19.94;59.83;100857.09;4972736;28;7018;-75
2023/09/07 06:10:10;;;;;;;;;;;;;;;20.03;59.50;100853.75;4985736;28;7649;-75
2023/09/07 06:12:35;;;;;;;;;;;;;;;20.11;59.87;100858.25;5002402;28;6998;-75
2023/09/07 06:15:01;;;;;;;;;;;;;;;20.22;59.80;100855.78;5003613;28;7017;-75
2023/09/07 06:17:27;;;;;;;;;;;;;;;20.33;59.33;100858.56;5000766;28;7346;-75
2023/09/07 06:19:54;;;;;;;;;;;;;;;20.44;59.40;100858.75;4983967;28;6985;-75
2023/09/07 06:22:19;;;;;;;;;;;;;;;20.54;59.59;100859.72;4985032;28;6808;-75
2023/09/07 06:24:44;;;;;;;;;;;;;;;20.65;59.24;100865.09;4969543;28;6790;-75
2023/09/07 06:27:10;;;;;;;;;;;;;;;20.75;59.13;100869.56;4968395;28;7162;-75
2023/09/07 06:29:35;;;;;;;;;;;;;;;20.85;59.03;100860.16;4970648;28;6930;-75
2023/09/07 06:32:01;;;;;;;;;;;;;;;20.98;59.05;100865.56;4968207;28;7196;-75
2023/09/07 06:34:26;;;;;;;;;;;;;;;21.06;58.66;100867.38;4974826;28;6780;-75
2023/09/07 06:36:52;;;;;;;;;;;;;;;21.17;58.97;100875.34;4985797;28;6775;-75
2023/09/07 06:39:17;;;;;;;;;;;;;;;21.27;58.50;100881.53;4985002;28;7390;-75
2023/09/07 06:41:46;;;;;;;;;;;;;;;21.34;58.60;100878.13;5001947;28;7042;-75
2023/09/07 06:44:11;;;;;;;;;;;;;;;21.43;58.12;100879.94;5000239;28;7039;-76
2023/09/07 06:46:37;;;;;;;;;;;;;;;21.53;58.00;100887.88;4971354;28;6800;-75
2023/09/07 06:49:03;;;;;;;;;;;;;;;21.62;58.09;100894.06;4986004;28;7310;-75
2023/09/07 06:51:30;;;;;;;;;;;;;;;21.72;57.84;100896.81;4985521;28;7036;-75
2023/09/07 06:53:56;;;;;;;;;;;;;;;21.81;57.47;100896.00;4967720;28;6819;-75
2023/09/07 06:56:21;;;;;;;;;;;;;;;21.91;57.46;100890.91;4973496;28;6996;-75
2023/09/07 06:58:47;;;;;;;;;;;;;;;22.00;57.32;100895.31;4970352;28;7113;-75
2023/09/07 07:01:12;;;;;;;;;;;;;;;22.09;57.49;100891.91;4984809;28;6804;-76
2023/09/07 07:03:38;;;;;;;;;;;;;;;22.18;57.27;100888.50;4969746;28;6825;-75
2023/09/07 07:06:03;;;;;;;;;;;;;;;22.25;57.02;100885.06;4969519;28;6780;-75
2023/09/07 07:08:29;;;;;;;;;;;;;;;22.33;57.22;100883.41;4967073;28;7116;-75
2023/09/07 07:10:54;;;;;;;;;;;;;;;22.42;56.63;100892.16;4984508;28;6870;-75
2023/09/07 07:13:20;;;;;;;;;;;;;;;22.49;56.41;100896.56;4984121;28;7142;-75
2023/09/07 07:15:45;;;;;;;;;;;;;;;22.56;56.51;100894.91;4985220;28;7264;-75
2023/09/07 07:18:11;;;;;;;;;;;;;;;22.63;56.53;100901.03;4955303;28;6953;-76
2023/09/07 07:20:38;;;;;;;;;;;;;;;22.71;55.94;100894.97;4983874;28;7009;-75
2023/09/07 07:23:06;;;;;;;;;;;;;;;22.80;55.99;100901.13;4967421;28;6796;-75
2023/09/07 07:25:33;;;;;;;;;;;;;;;22.87;56.01;100900.28;4969116;28;6799;-76
2023/09/07 07:27:59;;;;;;;;;;;;;;;22.95;55.77;100898.59;4984055;28;6795;-75
2023/09/07 07:30:28;;;;;;;;;;;;;;;23.03;55.25;100896.88;4968608;28;7196;-75
2023/09/07 07:32:54;;;;;;;;;;;;;;;23.11;55.07;100899.53;4968836;28;6804;-75
2023/09/07 07:35:20;;;;;;;;;;;;;;;23.22;55.35;100904.78;4970201;28;6807;-75
2023/09/07 07:37:45;;;;;;;;;;;;;;;23.31;55.02;100906.59;4974153;28;7054;-75
2023/09/07 07:40:11;;;;;;;;;;;;;;;23.41;55.12;100902.25;4985103;28;6807;-75
2023/09/07 07:42:36;;;;;;;;;;;;;;;23.52;54.75;100899.66;4983189;28;7173;-75
2023/09/07 07:45:02;;;;;;;;;;;;;;;23.62;54.30;100906.66;4968629;28;6943;-75
2023/09/07 07:47:27;;;;;;;;;;;;;;;23.69;53.96;100908.44;4982964;28;7011;-75
2023/09/07 07:49:53;;;;;;;;;;;;;;;23.82;53.72;100916.28;4983067;28;6796;-76
2023/09/07 07:52:18;;;;;;;;;;;;;;;23.90;53.26;100911.94;5000448;28;6954;-76
2023/09/07 07:54:44;;;;;;;;;;;;;;;23.99;52.92;100921.53;4984109;28;6792;-75
2023/09/07 07:57:10;;;;;;;;;;;;;;;24.07;53.12;100921.59;4983461;28;7189;-75
2023/09/07 07:59:36;;;;;;;;;;;;;;;24.15;52.57;100913.72;4983941;28;7075;-75
2023/09/07 08:02:01;;;;;;;;;;;;;;;24.24;52.46;100912.00;4982657;28;6800;-75
2023/09/07 08:04:27;;;;;;;;;;;;;;;24.32;51.83;100918.94;4969450;28;6792;-75
2023/09/07 08:06:58;;;;;;;;;;;;;;;24.41;51.37;100913.69;4969094;28;7007;-75
2023/09/07 08:09:23;;;;;;;;;;;;;;;24.50;51.13;100913.69;4968936;28;6808;-76
2023/09/07 08:11:49;;;;;;;;;;;;;;;24.60;51.03;100909.31;4999274;28;6927;-76
2023/09/07 08:14:14;;;;;;;;;;;;;;;24.70;50.49;100907.53;4967445;28;6788;-75
2023/09/07 08:16:40;;;;;;;;;;;;;;;24.78;50.55;100899.69;4966958;28;6791;-75
2023/09/07 08:19:05;;;;;;;;;;;;;;;24.89;50.30;100904.88;4968795;28;7394;-75
2023/09/07 08:21:31;;;;;;;;;;;;;;;24.97;50.28;100897.88;4966944;28;6816;-75
2023/09/07 08:23:56;;;;;;;;;;;;;;;25.06;50.22;100895.19;4972890;28;6772;-75
2023/09/07 08:26:22;;;;;;;;;;;;;;;25.17;49.81;100892.53;4950144;28;7233;-76
2023/09/07 08:28:47;;;;;;;;;;;;;;;25.27;49.97;100885.47;4970685;28;7086;-75
2023/09/07 08:31:14;;;;;;;;;;;;;;;25.37;49.84;100884.53;4966364;28;6975;-76
2023/09/07 08:33:40;;;;;;;;;;;;;;;25.48;49.55;100883.59;4982609;28;6969;-75
2023/09/07 08:36:06;;;;;;;;;;;;;;;25.57;49.64;100880.97;4972652;28;6776;-75
2023/09/07 08:38:31;;;;;;;;;;;;;;;25.67;49.35;100873.00;4966271;28;6843;-76
2023/09/07 08:41:04;;;;;;;;;;;;;;;25.76;49.01;100876.47;4965605;28;6831;-76
2023/09/07 08:43:34;;;;;;;;;;;;;;;25.86;48.86;100877.25;4982561;28;7257;-75
2023/09/07 08:46:14;;;;;;;;;;;;;;;25.97;48.57;100871.91;4968261;28;6871;-76
2023/09/07 08:48:42;;;;;;;;;;;;;;;26.07;48.52;100877.94;4982917;28;7190;-75
2023/09/07 08:51:10;;;;;;;;;;;;;;;26.17;48.49;100879.63;4968263;28;7209;-76
2023/09/07 08:53:37;;;;;;;;;;;;;;;26.25;48.41;100868.19;4981808;28;7079;-75
2023/09/07 08:56:03;;;;;;;;;;;;;;;26.32;48.12;100872.50;4968886;28;7276;-75
2023/09/07 08:58:29;;;;;;;;;;;;;;;26.40;47.95;100875.91;4966350;28;7191;-76
2023/09/07 09:00:57;;;;;;;;;;;;;;;26.47;47.70;100872.34;4966761;28;6839;-76
2023/09/07 09:03:23;;;;;;;;;;;;;;;26.56;48.00;100870.50;4971892;28;6994;-76
2023/09/07 09:05:50;;;;;;;;;;;;;;;26.62;47.97;100873.06;4964799;28;6954;-75
2023/09/07 09:08:20;;;;;;;;;;;;;;;26.69;47.59;100872.09;4965591;28;6965;-75
2023/09/07 09:10:45;;;;;;;;;;;;;;;26.76;47.57;100868.50;4967074;28;6812;-76
2023/09/07 09:13:11;;;;;;;;;;;;;;;26.85;47.30;100870.16;4965976;28;6820;-76
2023/09/07 09:15:37;;;;;;;;;;;;;;;26.96;47.31;100869.16;4965828;28;7203;-76
2023/09/07 09:18:13;;;;;;;;;;;;;;;27.06;47.30;100864.69;4981103;28;7034;-76
2023/09/07 09:20:39;;;;;;;;;;;;;;;27.13;47.26;100864.56;4981769;28;6970;-76
2023/09/07 09:23:07;;;;;;;;;;;;;;;27.25;46.83;100865.28;4967342;28;6783;-76
2023/09/07 09:25:32;;;;;;;;;;;;;;;27.35;47.34;100863.41;4972998;28;6860;-76
2023/09/07 09:27:57;;;;;;;;;;;;;;;27.46;47.09;100864.09;4981009;28;6905;-76
2023/09/07 09:30:24;;;;;;;;;;;;;;;27.58;46.40;100863.94;4972473;28;6866;-76
2023/09/07 09:32:50;;;;;;;;;;;;;;;27.70;46.00;100862.88;4969495;28;6796;-75
2023/09/07 09:35:18;;;;;;;;;;;;;;;27.82;45.80;100864.44;4981061;28;6787;-73
2023/09/07 09:37:48;;;;;;;;;;;;;;;27.95;45.29;100864.22;4966508;28;6891;-75
2023/09/07 09:40:16;;;;;;;;;;;;;;;28.05;44.96;100852.63;4998403;28;7178;-74
2023/09/07 09:42:43;;;;;;;;;;;;;;;28.16;45.29;100855.09;4968779;28;6820;-74
2023/09/07 09:45:10;;;;;;;;;;;;;;;28.26;44.50;100847.91;4981831;28;7070;-73
2023/09/07 09:47:39;;;;;;;;;;;;;;;28.38;44.40;100845.00;4964246;28;6966;-73
2023/09/07 09:50:06;;;;;;;;;;;;;;;28.50;44.47;100838.63;4965719;28;6997;-73
2023/09/07 09:52:34;;;;;;;;;;;;;;;28.62;44.08;100836.66;4981700;28;8721;-74
2023/09/07 09:55:01;;;;;;;;;;;;;;;28.72;43.84;100832.06;4998072;28;7124;-73
2023/09/07 09:57:28;;;;;;;;;;;;;;;28.86;43.35;100835.28;4981632;28;7396;-73
2023/09/07 09:59:55;;;;;;;;;;;;;;;29.02;43.46;100832.34;4965252;28;7002;-75
2023/09/07 10:02:21;;;;;;;;;;;;;;;29.42;43.24;100831.41;4980424;28;6803;-74
2023/09/07 10:04:47;;;;;;;;;;;;;;;30.37;41.80;100829.00;4969552;28;6983;-74
2023/09/07 10:07:13;;;;;;;;;;;;;;;31.49;40.29;100815.09;4998656;28;6974;-73
2023/09/07 10:09:38;;;;;;;;;;;;;;;32.63;39.27;100814.69;4967035;28;6787;-75
2023/09/07 10:12:08;;;;;;;;;;;;;;;33.73;37.26;100814.75;4981579;28;7071;-74
2023/09/07 10:14:40;;;;;;;;;;;;;;;34.82;35.47;100804.63;4981801;28;6812;-74
2023/09/07 10:17:06;;;;;;;;;;;;;;;35.70;34.92;100810.13;4965326;28;6982;-73
2023/09/07 10:19:33;;;;;;;;;;;;;;;36.36;33.13;100802.25;4971648;28;6991;-73
2023/09/07 10:21:59;;;;;;;;;;;;;;;37.02;32.38;100804.84;4964663;28;7142;-73
2023/09/07 10:24:29;;;;;;;;;;;;;;;37.55;31.11;100795.63;4981191;28;6808;-73
2023/09/07 10:27:06;;;;;;;;;;;;;;;38.10;30.76;100785.22;4968521;28;7019;-74
2023/09/07 10:29:43;;;;;;;;;;;;;;;38.62;30.03;100786.41;5000652;28;6859;-73
2023/09/07 10:32:17;;;;;;;;;;;;;;;39.00;29.27;100784.84;4984362;28;6807;-74
2023/09/07 10:34:43;;;;;;;;;;;;;;;39.23;28.58;100783.31;4968691;28;8189;-74
2023/09/07 10:37:14;;;;;;;;;;;;;;;39.47;28.05;100779.09;4983209;28;7250;-74
2023/09/07 10:39:44;;;;;;;;;;;;;;;39.75;27.83;100779.88;4967726;28;7178;-74
2023/09/07 10:42:23;;;;;;;;;;;;;;;40.04;27.21;100767.13;4968756;28;7338;-74
2023/09/07 10:44:49;;;;;;;;;;;;;;;40.29;26.83;100767.16;5001013;28;6859;-74
2023/09/07 10:47:14;;;;;;;;;;;;;;;40.46;26.25;100758.75;4980764;28;6851;-74
2023/09/07 10:49:40;;;;;;;;;;;;;;;40.54;25.95;100756.34;4969347;28;6815;-74
2023/09/07 10:52:05;;;;;;;;;;;;;;;40.61;25.80;100762.16;4968611;28;6815;-74
2023/09/07 10:54:31;;;;;;;;;;;;;;;40.58;25.59;100759.66;4969380;28;6812;-73
2023/09/07 10:56:58;;;;;;;;;;;;;;;40.53;25.58;100754.66;4969503;28;6792;-73
2023/09/07 10:59:27;;;;;;;;;;;;;;;40.54;25.74;100750.97;4983882;28;6994;-75
2023/09/07 11:01:53;;;;;;;;;;;;;;;40.64;25.64;100755.66;5000696;28;7009;-73
2023/09/07 11:04:20;;;;;;;;;;;;;;;40.75;25.47;100753.03;4968954;28;6855;-75
2023/09/07 11:06:46;;;;;;;;;;;;;;;40.89;24.89;100760.09;4983988;28;7230;-74
2023/09/07 11:09:11;;;;;;;;;;;;;;;41.03;24.93;100756.34;4983875;28;6870;-72
2023/09/07 11:11:37;;;;;;;;;;;;;;;41.19;24.80;100760.56;4972198;28;6967;-74
2023/09/07 11:14:04;;;;;;;;;;;;;;;41.37;23.96;100750.25;4983860;28;6951;-73
2023/09/07 11:16:30;;;;;;;;;;;;;;;41.48;24.29;100747.59;4983873;28;6808;-73
2023/09/07 11:18:55;;;;;;;;;;;;;;;41.52;23.91;100750.88;4967746;28;6966;-73
2023/09/07 11:21:21;;;;;;;;;;;;;;;41.57;24.14;100746.00;4983488;28;6784;-75
2023/09/07 11:23:46;;;;;;;;;;;;;;;41.57;23.94;100751.38;4983722;28;7102;-75
2023/09/07 11:26:13;;;;;;;;;;;;;;;41.61;23.77;100746.63;4982786;28;6988;-74
2023/09/07 11:28:38;;;;;;;;;;;;;;;41.71;23.44;100744.94;4970241;28;6800;-74
2023/09/07 11:31:04;;;;;;;;;;;;;;;41.79;23.51;100744.31;4967386;28;6962;-74
2023/09/07 11:33:33;;;;;;;;;;;;;;;41.89;23.41;100744.47;4983708;28;7067;-71
2023/09/07 11:35:58;;;;;;;;;;;;;;;41.94;23.02;100744.94;4976856;28;6979;-72
2023/09/07 11:38:29;;;;;;;;;;;;;;;42.00;23.05;100738.19;4966076;28;7329;-71
2023/09/07 11:40:55;;;;;;;;;;;;;;;42.01;23.01;100738.09;4983632;28;7335;-70
2023/09/07 11:43:22;;;;;;;;;;;;;;;41.96;22.88;100740.28;4999837;28;7135;-72
2023/09/07 11:45:48;;;;;;;;;;;;;;;41.86;22.91;100739.31;4967146;28;7005;-71
2023/09/07 11:48:13;;;;;;;;;;;;;;;41.81;23.53;100739.69;4967253;28;6869;-73
2023/09/07 11:50:40;;;;;;;;;;;;;;;41.92;23.04;100734.31;4982551;28;7199;-72
2023/09/07 11:53:06;;;;;;;;;;;;;;;41.99;23.00;100731.09;4984085;28;6800;-72
2023/09/07 11:55:32;;;;;;;;;;;;;;;42.04;22.87;100728.91;4967604;28;6804;-73
2023/09/07 11:57:58;;;;;;;;;;;;;;;42.09;22.63;100731.25;4999753;28;7206;-72
2023/09/07 12:00:24;;;;;;;;;;;;;;;42.11;22.86;100724.78;4982171;28;7108;-72
2023/09/07 12:02:50;;;;;;;;;;;;;;;42.16;22.62;100722.56;4972180;28;6966;-72
2023/09/07 12:05:15;;;;;;;;;;;;;;;42.27;22.51;100718.13;4982286;28;7437;-73
2023/09/07 12:07:45;;;;;;;;;;;;;;;42.32;22.36;100716.75;4967804;28;7134;-72
2023/09/07 12:10:13;;;;;;;;;;;;;;;42.34;22.03;100713.94;4998329;28;6812;-72
2023/09/07 12:12:43;;;;;;;;;;;;;;;42.25;22.34;100710.16;4983070;28;6983;-74
2023/09/07 12:15:11;;;;;;;;;;;;;;;42.15;22.04;100712.78;4998733;28;7023;-72
2023/09/07 12:17:36;;;;;;;;;;;;;;;42.03;22.33;100711.91;4965790;28;6872;-72
2023/09/07 12:20:03;;;;;;;;;;;;;;;41.95;22.52;100713.50;4974928;28;6780;-72
2023/09/07 12:22:28;;;;;;;;;;;;;;;41.95;22.42;100706.28;4998986;28;6990;-72
2023/09/07 12:24:54;;;;;;;;;;;;;;;42.08;22.17;100708.88;4981780;28;6780;-72
2023/09/07 12:27:20;;;;;;;;;;;;;;;42.16;22.38;100703.72;4982661;28;6805;-72
2023/09/07 12:29:45;;;;;;;;;;;;;;;42.28;22.30;100698.28;4965654;28;6819;-72
2023/09/07 12:32:11;;;;;;;;;;;;;;;42.35;22.09;100694.13;4966046;28;6929;-74
2023/09/07 12:34:37;;;;;;;;;;;;;;;42.30;22.31;100690.94;4982240;28;6843;-72
2023/09/07 12:37:06;;;;;;;;;;;;;;;42.33;22.37;100690.69;4971957;28;6941;-73
2023/09/07 12:39:32;;;;;;;;;;;;;;;42.37;21.91;100691.31;4964796;28;7000;-72
2023/09/07 12:41:57;;;;;;;;;;;;;;;42.31;21.93;100681.91;4966029;28;6812;-72
2023/09/07 12:44:23;;;;;;;;;;;;;;;42.30;22.28;100690.94;4981800;28;7235;-74